sensor_id;sensor_type;location;lat;lon;timestamp;P1;durP1;ratioP1;P2;durP2;ratioP2
69625;SDS011;56847;51.984;5.088;2023-04-29T04:27:10;34.38;;;18.17;;
69625;SDS011;56847;51.984;5.088;2023-04-29T04:29:43;36.53;;;18.85;;
69625;SDS011;56847;51.984;5.088;2023-04-29T04:32:16;35.95;;;20.98;;
69625;SDS011;56847;51.984;5.088;2023-04-29T04:34:43;39.97;;;19.80;;
69625;SDS011;56847;51.984;5.088;2023-04-29T04:37:11;36.75;;;20.00;;
69625;SDS011;56847;51.984;5.088;2023-04-29T04:39:40;37.05;;;21.67;;
69625;SDS011;56847;51.984;5.088;2023-04-29T04:42:10;36.88;;;20.25;;
69625;SDS011;56847;51.984;5.088;2023-04-29T04:44:40;34.75;;;18.30;;
69625;SDS011;56847;51.984;5.088;2023-04-29T04:47:12;36.00;;;19.87;;
69625;SDS011;56847;51.984;5.088;2023-04-29T04:49:54;37.00;;;19.23;;
69625;SDS011;56847;51.984;5.088;2023-04-29T04:52:22;40.22;;;21.38;;
69625;SDS011;56847;51.984;5.088;2023-04-29T04:55:11;36.90;;;21.33;;
69625;SDS011;56847;51.984;5.088;2023-04-29T04:57:44;32.67;;;19.85;;
69625;SDS011;56847;51.984;5.088;2023-04-29T05:00:11;36.33;;;20.60;;
69625;SDS011;56847;51.984;5.088;2023-04-29T05:02:39;35.25;;;17.88;;
69625;SDS011;56847;51.984;5.088;2023-04-29T05:05:06;35.28;;;21.60;;
69625;SDS011;56847;51.984;5.088;2023-04-29T05:07:35;37.55;;;20.02;;
69625;SDS011;56847;51.984;5.088;2023-04-29T05:10:04;40.83;;;21.75;;
69625;SDS011;56847;51.984;5.088;2023-04-29T05:12:37;34.67;;;20.67;;
69625;SDS011;56847;51.984;5.088;2023-04-29T05:15:04;37.15;;;21.50;;
69625;SDS011;56847;51.984;5.088;2023-04-29T05:17:32;41.17;;;20.65;;
69625;SDS011;56847;51.984;5.088;2023-04-29T05:20:00;33.92;;;20.17;;
69625;SDS011;56847;51.984;5.088;2023-04-29T05:22:28;37.63;;;20.27;;
69625;SDS011;56847;51.984;5.088;2023-04-29T05:25:00;32.00;;;17.23;;
69625;SDS011;56847;51.984;5.088;2023-04-29T05:27:32;32.28;;;20.10;;
69625;SDS011;56847;51.984;5.088;2023-04-29T05:29:59;40.50;;;20.35;;
69625;SDS011;56847;51.984;5.088;2023-04-29T05:32:27;43.38;;;20.15;;
69625;SDS011;56847;51.984;5.088;2023-04-29T05:34:55;35.63;;;20.70;;
69625;SDS011;56847;51.984;5.088;2023-04-29T05:37:22;40.13;;;18.87;;
69625;SDS011;56847;51.984;5.088;2023-04-29T05:40:01;31.17;;;18.55;;
69625;SDS011;56847;51.984;5.088;2023-04-29T05:42:33;41.30;;;20.58;;
69625;SDS011;56847;51.984;5.088;2023-04-29T05:45:00;38.03;;;19.98;;
69625;SDS011;56847;51.984;5.088;2023-04-29T05:47:31;37.15;;;21.00;;
69625;SDS011;56847;51.984;5.088;2023-04-29T05:49:58;36.17;;;18.83;;
69625;SDS011;56847;51.984;5.088;2023-04-29T05:52:28;40.90;;;20.08;;
69625;SDS011;56847;51.984;5.088;2023-04-29T05:54:57;40.42;;;19.00;;
69625;SDS011;56847;51.984;5.088;2023-04-29T05:57:24;31.90;;;17.08;;
69625;SDS011;56847;51.984;5.088;2023-04-29T05:59:52;39.88;;;19.20;;
69625;SDS011;56847;51.984;5.088;2023-04-29T06:02:23;32.10;;;18.27;;
69625;SDS011;56847;51.984;5.088;2023-04-29T06:04:50;37.00;;;18.88;;
69625;SDS011;56847;51.984;5.088;2023-04-29T06:07:26;37.28;;;19.73;;
69625;SDS011;56847;51.984;5.088;2023-04-29T06:09:59;36.10;;;18.08;;
69625;SDS011;56847;51.984;5.088;2023-04-29T06:12:27;37.28;;;19.00;;
69625;SDS011;56847;51.984;5.088;2023-04-29T06:14:58;38.33;;;18.50;;
69625;SDS011;56847;51.984;5.088;2023-04-29T06:17:25;34.38;;;16.08;;
69625;SDS011;56847;51.984;5.088;2023-04-29T06:19:54;31.77;;;18.52;;
69625;SDS011;56847;51.984;5.088;2023-04-29T06:22:22;29.40;;;16.80;;
69625;SDS011;56847;51.984;5.088;2023-04-29T06:25:03;32.13;;;18.25;;
69625;SDS011;56847;51.984;5.088;2023-04-29T06:27:41;29.20;;;16.87;;
69625;SDS011;56847;51.984;5.088;2023-04-29T06:30:08;38.33;;;19.30;;
69625;SDS011;56847;51.984;5.088;2023-04-29T06:32:38;35.15;;;19.35;;
69625;SDS011;56847;51.984;5.088;2023-04-29T06:35:05;28.08;;;18.08;;
69625;SDS011;56847;51.984;5.088;2023-04-29T06:37:51;34.30;;;16.77;;
69625;SDS011;56847;51.984;5.088;2023-04-29T06:40:31;31.40;;;16.73;;
69625;SDS011;56847;51.984;5.088;2023-04-29T06:43:17;33.15;;;16.95;;
69625;SDS011;56847;51.984;5.088;2023-04-29T06:45:59;30.00;;;14.90;;
69625;SDS011;56847;51.984;5.088;2023-04-29T06:48:48;34.22;;;18.27;;
69625;SDS011;56847;51.984;5.088;2023-04-29T06:51:15;33.45;;;19.92;;
69625;SDS011;56847;51.984;5.088;2023-04-29T06:53:45;33.57;;;16.57;;
69625;SDS011;56847;51.984;5.088;2023-04-29T06:56:16;23.83;;;14.35;;
69625;SDS011;56847;51.984;5.088;2023-04-29T06:58:46;26.70;;;17.52;;
69625;SDS011;56847;51.984;5.088;2023-04-29T07:01:13;28.98;;;17.05;;
69625;SDS011;56847;51.984;5.088;2023-04-29T07:03:41;31.48;;;17.35;;
69625;SDS011;56847;51.984;5.088;2023-04-29T07:06:10;26.30;;;15.40;;
69625;SDS011;56847;51.984;5.088;2023-04-29T07:08:37;28.10;;;13.82;;
69625;SDS011;56847;51.984;5.088;2023-04-29T07:11:04;29.45;;;17.10;;
69625;SDS011;56847;51.984;5.088;2023-04-29T07:13:51;29.30;;;15.50;;
69625;SDS011;56847;51.984;5.088;2023-04-29T07:16:21;29.95;;;15.63;;
69625;SDS011;56847;51.984;5.088;2023-04-29T07:19:07;26.07;;;13.43;;
69625;SDS011;56847;51.984;5.088;2023-04-29T07:21:34;25.95;;;14.43;;
69625;SDS011;56847;51.984;5.088;2023-04-29T07:24:01;25.73;;;14.00;;
69625;SDS011;56847;51.984;5.088;2023-04-29T07:26:31;30.20;;;16.02;;
69625;SDS011;56847;51.984;5.088;2023-04-29T07:29:02;28.15;;;15.27;;
69625;SDS011;56847;51.984;5.088;2023-04-29T07:31:33;28.30;;;14.50;;
69625;SDS011;56847;51.984;5.088;2023-04-29T07:34:06;25.05;;;14.77;;
69625;SDS011;56847;51.984;5.088;2023-04-29T07:36:33;22.77;;;13.65;;
69625;SDS011;56847;51.984;5.088;2023-04-29T07:39:09;25.40;;;14.05;;
69625;SDS011;56847;51.984;5.088;2023-04-29T07:41:38;23.10;;;13.73;;
69625;SDS011;56847;51.984;5.088;2023-04-29T07:44:06;24.27;;;13.73;;
69625;SDS011;56847;51.984;5.088;2023-04-29T07:46:34;24.50;;;14.60;;
69625;SDS011;56847;51.984;5.088;2023-04-29T07:49:02;23.73;;;14.65;;
69625;SDS011;56847;51.984;5.088;2023-04-29T07:51:33;22.77;;;13.77;;
69625;SDS011;56847;51.984;5.088;2023-04-29T07:54:00;23.02;;;13.00;;
69625;SDS011;56847;51.984;5.088;2023-04-29T07:56:28;19.97;;;11.93;;
69625;SDS011;56847;51.984;5.088;2023-04-29T07:58:56;23.92;;;11.93;;
69625;SDS011;56847;51.984;5.088;2023-04-29T08:01:33;22.33;;;12.77;;
69625;SDS011;56847;51.984;5.088;2023-04-29T08:04:07;24.25;;;11.68;;
69625;SDS011;56847;51.984;5.088;2023-04-29T08:06:44;20.88;;;13.60;;
69625;SDS011;56847;51.984;5.088;2023-04-29T08:09:12;23.87;;;12.00;;
69625;SDS011;56847;51.984;5.088;2023-04-29T08:11:40;19.90;;;11.85;;
69625;SDS011;56847;51.984;5.088;2023-04-29T08:14:11;24.48;;;12.57;;
69625;SDS011;56847;51.984;5.088;2023-04-29T08:16:38;25.83;;;11.60;;
69625;SDS011;56847;51.984;5.088;2023-04-29T08:19:05;20.45;;;11.85;;
69625;SDS011;56847;51.984;5.088;2023-04-29T08:21:33;23.13;;;12.37;;
69625;SDS011;56847;51.984;5.088;2023-04-29T08:24:03;23.33;;;11.48;;
69625;SDS011;56847;51.984;5.088;2023-04-29T08:26:31;23.35;;;11.82;;
69625;SDS011;56847;51.984;5.088;2023-04-29T08:28:59;18.70;;;10.50;;
69625;SDS011;56847;51.984;5.088;2023-04-29T08:31:26;16.30;;;11.50;;
69625;SDS011;56847;51.984;5.088;2023-04-29T08:33:53;21.00;;;10.73;;
69625;SDS011;56847;51.984;5.088;2023-04-29T08:36:20;18.92;;;10.90;;
69625;SDS011;56847;51.984;5.088;2023-04-29T08:38:47;22.65;;;11.68;;
69625;SDS011;56847;51.984;5.088;2023-04-29T08:41:17;25.20;;;11.80;;
69625;SDS011;56847;51.984;5.088;2023-04-29T08:43:44;19.63;;;11.95;;
69625;SDS011;56847;51.984;5.088;2023-04-29T08:46:12;22.73;;;11.73;;
69625;SDS011;56847;51.984;5.088;2023-04-29T08:48:39;17.80;;;10.93;;
69625;SDS011;56847;51.984;5.088;2023-04-29T08:51:11;22.27;;;11.65;;
69625;SDS011;56847;51.984;5.088;2023-04-29T08:53:39;20.25;;;11.00;;
69625;SDS011;56847;51.984;5.088;2023-04-29T08:56:12;20.55;;;10.50;;
69625;SDS011;56847;51.984;5.088;2023-04-29T08:58:43;20.10;;;9.20;;
69625;SDS011;56847;51.984;5.088;2023-04-29T09:01:10;19.50;;;10.07;;
69625;SDS011;56847;51.984;5.088;2023-04-29T09:06:14;20.52;;;10.50;;
69625;SDS011;56847;51.984;5.088;2023-04-29T09:08:41;17.80;;;10.38;;
69625;SDS011;56847;51.984;5.088;2023-04-29T09:11:09;18.00;;;9.43;;
69625;SDS011;56847;51.984;5.088;2023-04-29T09:13:37;23.83;;;9.40;;
69625;SDS011;56847;51.984;5.088;2023-04-29T09:16:09;19.15;;;9.57;;
69625;SDS011;56847;51.984;5.088;2023-04-29T09:18:49;18.10;;;10.32;;
69625;SDS011;56847;51.984;5.088;2023-04-29T09:21:25;15.68;;;9.68;;
69625;SDS011;56847;51.984;5.088;2023-04-29T09:23:54;18.67;;;9.83;;
69625;SDS011;56847;51.984;5.088;2023-04-29T09:26:22;17.20;;;11.02;;
69625;SDS011;56847;51.984;5.088;2023-04-29T09:29:09;16.88;;;9.35;;
69625;SDS011;56847;51.984;5.088;2023-04-29T09:31:37;18.85;;;8.38;;
69625;SDS011;56847;51.984;5.088;2023-04-29T09:34:04;13.30;;;8.57;;
69625;SDS011;56847;51.984;5.088;2023-04-29T09:36:47;17.60;;;8.20;;
69625;SDS011;56847;51.984;5.088;2023-04-29T09:39:24;13.43;;;8.15;;
69625;SDS011;56847;51.984;5.088;2023-04-29T09:44:21;16.45;;;8.20;;
69625;SDS011;56847;51.984;5.088;2023-04-29T09:46:59;13.98;;;7.90;;
69625;SDS011;56847;51.984;5.088;2023-04-29T09:49:40;16.67;;;7.27;;
69625;SDS011;56847;51.984;5.088;2023-04-29T09:52:09;14.52;;;8.20;;
69625;SDS011;56847;51.984;5.088;2023-04-29T09:54:38;15.00;;;9.40;;
69625;SDS011;56847;51.984;5.088;2023-04-29T09:57:08;12.68;;;7.57;;
69625;SDS011;56847;51.984;5.088;2023-04-29T09:59:37;12.13;;;7.35;;
69625;SDS011;56847;51.984;5.088;2023-04-29T10:02:12;11.30;;;6.27;;
69625;SDS011;56847;51.984;5.088;2023-04-29T10:04:41;12.25;;;6.80;;
69625;SDS011;56847;51.984;5.088;2023-04-29T10:07:15;17.33;;;7.78;;
69625;SDS011;56847;51.984;5.088;2023-04-29T10:09:44;9.88;;;6.10;;
69625;SDS011;56847;51.984;5.088;2023-04-29T10:12:20;17.40;;;8.27;;
69625;SDS011;56847;51.984;5.088;2023-04-29T10:14:52;16.00;;;6.50;;
69625;SDS011;56847;51.984;5.088;2023-04-29T10:17:35;14.13;;;6.15;;
69625;SDS011;56847;51.984;5.088;2023-04-29T10:20:20;11.70;;;6.90;;
